Terminal Aerodrome Forecast
Issued by NWS

Home | Current Version | Previous Version | Graphics & Text | Print | Product List | Glossary On
Versions: 1 2 3 4 5 6 7 8 9 10 11 12 13 14 15 16 17 18
000
FTUS43 KICT 170533
TAFCNU
TAF
KCNU 170533Z 1706/1806 17010KT P6SM OVC015
     FM171100 17013KT 5SM -DZ OVC004
     FM171700 20019G27KT P6SM OVC015
     FM171900 20019G27KT P6SM BKN040
     FM180000 19013KT P6SM BKN150=

USA.gov is the U.S. government's official web portal to all federal, state and local government web resources and services.